Time;durP1;ratioP1;P1;durP2;ratioP2;P2;SDS_P1;SDS_P2;PMS_P1;PMS_P2;Temp;Humidity;BMP_temperature;BMP_pressure;BME280_temperature;BME280_humidity;BME280_pressure;Samples;Min_cycle;Max_cycle;Signal;HPM_P1;HPM_P2
2023/08/15 00:01:13;;;;;;;10.77;2.40;;;;;;;;;;5061805;28;20081;-80
2023/08/15 00:03:46;;;;;;;5.97;2.58;;;;;;;;;;5069598;28;20927;-82
2023/08/15 00:06:12;;;;;;;4.75;1.73;;;;;;;;;;5060056;28;20016;-82
2023/08/15 00:08:38;;;;;;;8.52;3.00;;;;;;;;;;5056039;28;20472;-82
2023/08/15 00:11:03;;;;;;;7.88;2.40;;;;;;;;;;5069795;28;20020;-79
2023/08/15 00:13:28;;;;;;;5.70;1.90;;;;;;;;;;5086981;28;20020;-79
2023/08/15 00:15:54;;;;;;;11.95;2.50;;;;;;;;;;5076417;28;20064;-79
2023/08/15 00:18:20;;;;;;;16.60;2.50;;;;;;;;;;5070658;28;20036;-80
2023/08/15 00:20:52;;;;;;;8.32;2.30;;;;;;;;;;5061588;28;20454;-79
2023/08/15 00:23:17;;;;;;;;;;;;;;;;;;5056126;28;20033;-79
2023/08/15 00:25:43;;;;;;;8.95;2.40;;;;;;;;;;5088030;28;19904;-79
2023/08/15 00:28:08;;;;;;;10.63;2.75;;;;;;;;;;5066038;28;20264;-78
2023/08/15 00:30:34;;;;;;;6.65;2.45;;;;;;;;;;5080118;28;20063;-78
2023/08/15 00:32:59;;;;;;;8.30;2.33;;;;;;;;;;5067742;28;20057;-78
2023/08/15 00:35:24;;;;;;;12.63;2.63;;;;;;;;;;5087820;28;20104;-79
2023/08/15 00:37:49;;;;;;;7.93;2.72;;;;;;;;;;5075828;28;20052;-79
2023/08/15 00:40:15;;;;;;;7.18;2.58;;;;;;;;;;5075549;28;20023;-79
2023/08/15 00:42:42;;;;;;;7.88;2.25;;;;;;;;;;5061929;28;20068;-78
2023/08/15 00:45:08;;;;;;;8.32;2.55;;;;;;;;;;5053629;28;20024;-79
2023/08/15 00:47:33;;;;;;;5.38;2.70;;;;;;;;;;5093772;28;20149;-79
2023/08/15 00:49:59;;;;;;;9.45;2.33;;;;;;;;;;5075645;28;20142;-79
2023/08/15 00:52:25;;;;;;;7.85;2.60;;;;;;;;;;5061136;28;20025;-79
2023/08/15 00:54:51;;;;;;;5.20;2.40;;;;;;;;;;5073538;28;20497;-79
2023/08/15 00:57:17;;;;;;;10.02;3.78;;;;;;;;;;5064451;28;20020;-79
2023/08/15 00:59:43;;;;;;;7.18;3.15;;;;;;;;;;5089036;28;20012;-79
2023/08/15 01:02:08;;;;;;;7.43;3.10;;;;;;;;;;5072444;28;20024;-78
2023/08/15 01:04:35;;;;;;;8.07;2.97;;;;;;;;;;5060741;28;20529;-79
2023/08/15 01:07:00;;;;;;;7.63;2.35;;;;;;;;;;5070296;28;20020;-79
2023/08/15 01:09:26;;;;;;;5.10;2.03;;;;;;;;;;5093683;28;20030;-79
2023/08/15 01:12:07;;;;;;;10.38;2.83;;;;;;;;;;5066548;28;20040;-79
2023/08/15 01:14:36;;;;;;;7.40;2.20;;;;;;;;;;5069657;28;20031;-79
2023/08/15 01:17:10;;;;;;;7.68;2.13;;;;;;;;;;5076668;28;20050;-79
2023/08/15 01:19:40;;;;;;;9.75;2.17;;;;;;;;;;5076880;28;20058;-78
2023/08/15 01:22:14;;;;;;;4.55;1.95;;;;;;;;;;5066300;28;20109;-79
2023/08/15 01:24:39;;;;;;;8.80;2.05;;;;;;;;;;5087638;28;20020;-79
2023/08/15 01:27:07;;;;;;;7.50;2.15;;;;;;;;;;5076620;28;20012;-79
2023/08/15 01:29:33;;;;;;;10.85;2.60;;;;;;;;;;5076320;28;20031;-79
2023/08/15 01:32:08;;;;;;;7.80;2.00;;;;;;;;;;5060991;28;20054;-79
2023/08/15 01:34:36;;;;;;;6.93;2.08;;;;;;;;;;5075141;28;20012;-79
2023/08/15 01:37:08;;;;;;;7.18;2.42;;;;;;;;;;5075843;28;20073;-79
2023/08/15 01:39:33;;;;;;;;;;;;;;;;;;5076406;28;20328;-79
2023/08/15 01:42:00;;;;;;;6.72;2.70;;;;;;;;;;5062500;28;19927;-79
2023/08/15 01:44:25;;;;;;;6.28;2.30;;;;;;;;;;5047099;28;20018;-79
2023/08/15 01:46:51;;;;;;;8.57;2.20;;;;;;;;;;5062951;28;20083;-78
2023/08/15 01:49:16;;;;;;;11.27;2.58;;;;;;;;;;5076837;28;20054;-79
2023/08/15 01:51:42;;;;;;;10.48;2.38;;;;;;;;;;5082478;28;20020;-79
2023/08/15 01:54:07;;;;;;;14.00;2.22;;;;;;;;;;5068358;28;20020;-78
2023/08/15 01:56:32;;;;;;;8.23;2.00;;;;;;;;;;5062383;28;20146;-79
2023/08/15 01:58:58;;;;;;;10.30;2.00;;;;;;;;;;5092549;28;20027;-79
2023/08/15 02:01:23;;;;;;;7.50;2.35;;;;;;;;;;5068097;28;20017;-79
2023/08/15 02:03:48;;;;;;;5.15;1.73;;;;;;;;;;5066295;28;20027;-79
2023/08/15 02:06:14;;;;;;;10.55;2.22;;;;;;;;;;5092383;28;20012;-79
2023/08/15 02:08:39;;;;;;;4.28;1.80;;;;;;;;;;5074026;28;20108;-79
2023/08/15 02:11:05;;;;;;;8.50;2.20;;;;;;;;;;5088313;28;20029;-79
2023/08/15 02:13:32;;;;;;;10.20;2.17;;;;;;;;;;5079564;28;20012;-79
2023/08/15 02:15:57;;;;;;;3.35;1.58;;;;;;;;;;5073993;28;20354;-79
2023/08/15 02:18:25;;;;;;;6.18;2.13;;;;;;;;;;5073637;28;20016;-79
2023/08/15 02:20:50;;;;;;;8.02;2.28;;;;;;;;;;5072333;28;20024;-79
2023/08/15 02:23:16;;;;;;;7.68;2.38;;;;;;;;;;5068236;28;20069;-79
2023/08/15 02:25:42;;;;;;;6.70;2.08;;;;;;;;;;5092172;28;20008;-79
2023/08/15 02:28:07;;;;;;;7.70;2.35;;;;;;;;;;5062493;28;20043;-79
2023/08/15 02:30:37;;;;;;;11.32;2.58;;;;;;;;;;5058746;28;20012;-78
2023/08/15 02:33:02;;;;;;;10.82;2.10;;;;;;;;;;5083270;28;20414;-79
2023/08/15 02:35:27;;;;;;;7.05;2.33;;;;;;;;;;5074289;28;20028;-79
2023/08/15 02:37:53;;;;;;;11.43;2.05;;;;;;;;;;5074676;28;20498;-79
2023/08/15 02:40:18;;;;;;;10.30;2.15;;;;;;;;;;5075516;28;20448;-79
2023/08/15 02:42:44;;;;;;;12.07;2.47;;;;;;;;;;5064872;28;20016;-79
2023/08/15 02:45:09;;;;;;;7.70;2.20;;;;;;;;;;5075561;28;20020;-79
2023/08/15 02:47:35;;;;;;;8.23;2.33;;;;;;;;;;5076343;28;20076;-79
2023/08/15 02:50:00;;;;;;;5.68;2.38;;;;;;;;;;5074889;28;20020;-79
2023/08/15 02:52:32;;;;;;;6.43;1.65;;;;;;;;;;5061554;28;20020;-79
2023/08/15 02:54:57;;;;;;;6.60;2.03;;;;;;;;;;5079259;28;20016;-79
2023/08/15 02:57:22;;;;;;;5.43;2.05;;;;;;;;;;5078721;28;20117;-78
2023/08/15 02:59:48;;;;;;;10.93;1.83;;;;;;;;;;5078074;28;20027;-79
2023/08/15 03:02:15;;;;;;;8.07;2.13;;;;;;;;;;5067151;28;20047;-79
2023/08/15 03:04:41;;;;;;;11.98;2.28;;;;;;;;;;5086115;28;20050;-81
2023/08/15 03:07:07;;;;;;;5.90;1.98;;;;;;;;;;5080308;28;20020;-82
2023/08/15 03:09:34;;;;;;;6.00;2.05;;;;;;;;;;5077210;28;20050;-81
2023/08/15 03:12:00;;;;;;;10.73;2.40;;;;;;;;;;5085625;28;20029;-82
2023/08/15 03:14:29;;;;;;;10.90;2.70;;;;;;;;;;5072153;28;20054;-82
2023/08/15 03:16:54;;;;;;;10.82;2.33;;;;;;;;;;5095183;28;20316;-82
2023/08/15 03:19:20;;;;;;;15.30;3.00;;;;;;;;;;5076696;28;20028;-82
2023/08/15 03:21:45;;;;;;;10.90;2.33;;;;;;;;;;5070809;28;20032;-82
2023/08/15 03:24:11;;;;;;;9.25;2.60;;;;;;;;;;5069329;28;20404;-82
2023/08/15 03:26:36;;;;;;;11.73;2.20;;;;;;;;;;5070095;28;20031;-82
2023/08/15 03:29:01;;;;;;;10.95;2.20;;;;;;;;;;5076410;28;20016;-82
2023/08/15 03:31:27;;;;;;;9.27;2.03;;;;;;;;;;5064663;28;20025;-82
2023/08/15 03:33:52;;;;;;;5.97;1.90;;;;;;;;;;5073489;28;20463;-82
2023/08/15 03:36:17;;;;;;;11.98;2.40;;;;;;;;;;5076597;28;20026;-82
2023/08/15 03:38:42;;;;;;;9.93;2.53;;;;;;;;;;5076137;28;20020;-82
2023/08/15 03:41:08;;;;;;;5.35;1.77;;;;;;;;;;5074819;28;20043;-82
2023/08/15 03:43:34;;;;;;;7.85;2.70;;;;;;;;;;5065605;28;20555;-82
2023/08/15 03:46:00;;;;;;;7.18;2.20;;;;;;;;;;5060964;28;20024;-82
2023/08/15 03:48:31;;;;;;;6.47;2.03;;;;;;;;;;5072659;28;20016;-82
2023/08/15 03:50:57;;;;;;;7.35;1.95;;;;;;;;;;5072709;28;20025;-81
2023/08/15 03:53:23;;;;;;;11.25;2.33;;;;;;;;;;5075793;28;20478;-82
2023/08/15 03:55:51;;;;;;;6.22;1.95;;;;;;;;;;5076256;28;20028;-82
2023/08/15 03:58:17;;;;;;;11.38;2.55;;;;;;;;;;5075908;28;20169;-82
2023/08/15 04:00:43;;;;;;;8.38;2.42;;;;;;;;;;5066249;28;20463;-81
2023/08/15 04:03:09;;;;;;;12.77;2.72;;;;;;;;;;5090942;28;20024;-82
2023/08/15 04:05:34;;;;;;;10.50;2.45;;;;;;;;;;5078822;28;20015;-81
2023/08/15 04:07:59;;;;;;;11.75;3.13;;;;;;;;;;5077591;28;20516;-80
2023/08/15 04:10:25;;;;;;;7.88;2.80;;;;;;;;;;5070393;28;20052;-82
2023/08/15 04:12:50;;;;;;;9.05;2.53;;;;;;;;;;5069919;28;20031;-82
2023/08/15 04:15:15;;;;;;;10.63;2.42;;;;;;;;;;5063007;28;20043;-82
2023/08/15 04:17:41;;;;;;;7.38;1.88;;;;;;;;;;5067684;28;20025;-82
2023/08/15 04:20:07;;;;;;;7.50;2.50;;;;;;;;;;5068563;28;20494;-82
2023/08/15 04:22:33;;;;;;;9.20;2.28;;;;;;;;;;5073940;28;20023;-82
2023/08/15 04:24:58;;;;;;;9.02;2.28;;;;;;;;;;5057742;28;20025;-82
2023/08/15 04:27:24;;;;;;;8.80;2.35;;;;;;;;;;5064827;28;20012;-82
2023/08/15 04:29:50;;;;;;;8.93;1.88;;;;;;;;;;5093218;28;20035;-82
2023/08/15 04:32:16;;;;;;;5.97;1.90;;;;;;;;;;5078860;28;20028;-81
2023/08/15 04:34:41;;;;;;;7.13;2.10;;;;;;;;;;5076894;28;20017;-82
2023/08/15 04:37:07;;;;;;;8.57;2.55;;;;;;;;;;5075635;28;20012;-81
2023/08/15 04:39:34;;;;;;;8.18;2.35;;;;;;;;;;5075584;28;20044;-82
2023/08/15 04:41:59;;;;;;;6.80;1.98;;;;;;;;;;5056232;28;20036;-81
2023/08/15 04:44:24;;;;;;;7.78;2.00;;;;;;;;;;5075418;28;20020;-82
2023/08/15 04:46:52;;;;;;;5.70;1.80;;;;;;;;;;5093588;28;20042;-82
2023/08/15 04:49:20;;;;;;;4.95;2.05;;;;;;;;;;5074647;28;20051;-82
2023/08/15 04:51:45;;;;;;;7.50;2.58;;;;;;;;;;5056431;28;20391;-82
2023/08/15 04:54:11;;;;;;;4.43;1.73;;;;;;;;;;5054501;28;20032;-82
2023/08/15 04:56:38;;;;;;;8.90;2.00;;;;;;;;;;5063757;28;20126;-84
2023/08/15 04:59:04;;;;;;;4.45;2.53;;;;;;;;;;5073872;28;20030;-84
2023/08/15 05:01:31;;;;;;;7.25;2.15;;;;;;;;;;5060284;28;20095;-84
2023/08/15 05:03:57;;;;;;;6.82;2.17;;;;;;;;;;5066994;28;20024;-84
2023/08/15 05:06:22;;;;;;;7.43;2.00;;;;;;;;;;5074630;28;20047;-84
2023/08/15 05:08:47;;;;;;;8.52;1.95;;;;;;;;;;5074872;28;20020;-83
2023/08/15 05:11:13;;;;;;;6.50;2.10;;;;;;;;;;5065477;28;20028;-86
2023/08/15 05:13:38;;;;;;;9.07;2.20;;;;;;;;;;5066315;28;20012;-85
2023/08/15 05:16:04;;;;;;;4.13;1.90;;;;;;;;;;5068136;28;20031;-84
2023/08/15 05:18:31;;;;;;;7.55;2.15;;;;;;;;;;5073416;28;20016;-84
2023/08/15 05:20:57;;;;;;;7.80;2.50;;;;;;;;;;5064181;28;20086;-84
2023/08/15 05:23:22;;;;;;;9.50;3.05;;;;;;;;;;5058281;28;20505;-84
2023/08/15 05:25:47;;;;;;;15.95;2.67;;;;;;;;;;5074652;28;20038;-85
2023/08/15 05:28:13;;;;;;;9.45;2.35;;;;;;;;;;5092691;28;20091;-84
2023/08/15 05:30:41;;;;;;;7.57;2.88;;;;;;;;;;5059788;28;20118;-85
2023/08/15 05:33:07;;;;;;;6.45;2.35;;;;;;;;;;5094326;28;20470;-84
2023/08/15 05:35:32;;;;;;;9.52;2.50;;;;;;;;;;5075920;28;20591;-84
2023/08/15 05:37:58;;;;;;;10.73;2.75;;;;;;;;;;5075210;28;20045;-84
2023/08/15 05:40:23;;;;;;;9.20;2.70;;;;;;;;;;5061277;28;20063;-84
2023/08/15 05:42:49;;;;;;;7.03;2.22;;;;;;;;;;5064412;28;20024;-84
2023/08/15 05:45:14;;;;;;;9.18;2.97;;;;;;;;;;5075749;28;20054;-85
2023/08/15 05:47:40;;;;;;;9.63;2.13;;;;;;;;;;5068447;28;20032;-84
2023/08/15 05:50:05;;;;;;;7.35;2.40;;;;;;;;;;5053986;28;20099;-84
2023/08/15 05:52:31;;;;;;;10.65;2.50;;;;;;;;;;5060640;28;20035;-84
2023/08/15 05:54:56;;;;;;;11.82;2.55;;;;;;;;;;5076070;28;20021;-84
2023/08/15 05:57:22;;;;;;;6.22;2.00;;;;;;;;;;5069896;28;20023;-84
2023/08/15 05:59:47;;;;;;;9.25;2.22;;;;;;;;;;5059983;28;20043;-84
2023/08/15 06:02:13;;;;;;;9.70;2.10;;;;;;;;;;5054228;28;20029;-83
2023/08/15 06:04:38;;;;;;;8.55;2.28;;;;;;;;;;5073468;28;20502;-83
2023/08/15 06:07:04;;;;;;;9.02;1.90;;;;;;;;;;5064528;28;20059;-82
2023/08/15 06:09:30;;;;;;;5.57;1.75;;;;;;;;;;5057167;28;20125;-82
2023/08/15 06:11:55;;;;;;;8.73;2.38;;;;;;;;;;5074847;28;20028;-82
2023/08/15 06:14:20;;;;;;;7.53;2.30;;;;;;;;;;5063673;28;20027;-82
2023/08/15 06:16:46;;;;;;;7.38;2.20;;;;;;;;;;5092947;28;20016;-82
2023/08/15 06:19:11;;;;;;;8.25;2.10;;;;;;;;;;5057394;28;20051;-82
2023/08/15 06:21:37;;;;;;;6.60;1.95;;;;;;;;;;5051736;28;20024;-82
2023/08/15 06:24:02;;;;;;;7.28;2.08;;;;;;;;;;5056002;28;20443;-82
2023/08/15 06:26:27;;;;;;;9.25;2.80;;;;;;;;;;5055442;28;20116;-82
2023/08/15 06:28:55;;;;;;;9.35;1.90;;;;;;;;;;5070662;28;20062;-83
2023/08/15 06:31:21;;;;;;;6.65;2.10;;;;;;;;;;5060423;28;20035;-82
2023/08/15 06:33:46;;;;;;;9.68;2.30;;;;;;;;;;5073744;28;20124;-83
2023/08/15 06:36:11;;;;;;;8.73;2.58;;;;;;;;;;5060670;28;20386;-82
2023/08/15 06:38:37;;;;;;;5.88;2.42;;;;;;;;;;5061078;28;20161;-83
2023/08/15 06:41:02;;;;;;;4.65;1.70;;;;;;;;;;5078321;28;20459;-82
2023/08/15 06:43:28;;;;;;;5.43;2.20;;;;;;;;;;5095129;28;20040;-82
2023/08/15 06:45:53;;;;;;;12.38;2.03;;;;;;;;;;5063825;28;20031;-83
2023/08/15 06:48:18;;;;;;;3.72;1.77;;;;;;;;;;5060979;28;20016;-82
2023/08/15 06:50:44;;;;;;;9.65;2.50;;;;;;;;;;5092569;28;20020;-82
2023/08/15 06:53:09;;;;;;;6.55;2.17;;;;;;;;;;5074670;28;20066;-82
2023/08/15 06:55:34;;;;;;;10.55;2.10;;;;;;;;;;5066302;28;20028;-82
2023/08/15 06:58:01;;;;;;;6.75;2.40;;;;;;;;;;5059526;28;20016;-83
2023/08/15 07:00:29;;;;;;;5.75;1.92;;;;;;;;;;5057922;28;20525;-80
2023/08/15 07:02:55;;;;;;;6.05;1.90;;;;;;;;;;5067133;28;20024;-83
2023/08/15 07:05:20;;;;;;;10.45;1.92;;;;;;;;;;5077945;28;20016;-82
2023/08/15 07:07:46;;;;;;;7.95;2.00;;;;;;;;;;5065208;28;20051;-83
2023/08/15 07:10:11;;;;;;;6.63;1.73;;;;;;;;;;5091506;28;20024;-82
2023/08/15 07:12:37;;;;;;;9.27;2.10;;;;;;;;;;5064867;28;20065;-82
2023/08/15 07:15:02;;;;;;;6.68;2.10;;;;;;;;;;5064876;28;20032;-82
2023/08/15 07:17:28;;;;;;;4.80;1.60;;;;;;;;;;5084823;28;20031;-82
2023/08/15 07:19:53;;;;;;;4.50;1.73;;;;;;;;;;5089331;28;20528;-82
2023/08/15 07:22:25;;;;;;;5.78;1.70;;;;;;;;;;5083237;28;20085;-81
2023/08/15 07:24:50;;;;;;;7.07;1.65;;;;;;;;;;5066300;28;20027;-83
2023/08/15 07:27:18;;;;;;;6.65;2.05;;;;;;;;;;5076617;28;20029;-83
2023/08/15 07:29:44;;;;;;;5.03;1.67;;;;;;;;;;5078390;28;20039;-82
2023/08/15 07:32:16;;;;;;;6.72;1.60;;;;;;;;;;5095355;28;20455;-82
2023/08/15 07:34:41;;;;;;;3.38;1.48;;;;;;;;;;5067585;28;20770;-82
2023/08/15 07:37:06;;;;;;;7.28;1.50;;;;;;;;;;5072252;28;20052;-82
2023/08/15 07:39:32;;;;;;;5.53;1.85;;;;;;;;;;5076523;28;20112;-82
2023/08/15 07:42:00;;;;;;;4.20;1.77;;;;;;;;;;5077367;28;20032;-82
2023/08/15 07:44:25;;;;;;;6.82;1.73;;;;;;;;;;5074491;28;20122;-83
2023/08/15 07:46:51;;;;;;;5.45;1.90;;;;;;;;;;5095231;28;20043;-82
2023/08/15 07:49:16;;;;;;;5.20;1.42;;;;;;;;;;5062564;28;20492;-81
2023/08/15 07:51:42;;;;;;;7.18;1.60;;;;;;;;;;5076768;28;20119;-82
2023/08/15 07:54:07;;;;;;;10.00;1.40;;;;;;;;;;5067810;28;20017;-82
2023/08/15 07:56:33;;;;;;;3.78;1.20;;;;;;;;;;5076593;28;20012;-82
2023/08/15 07:58:59;;;;;;;6.70;1.75;;;;;;;;;;5076045;28;20636;-82
2023/08/15 08:01:24;;;;;;;5.72;1.80;;;;;;;;;;5076792;28;20016;-81
2023/08/15 08:03:49;;;;;;;8.35;1.83;;;;;;;;;;5074066;28;20058;-82
2023/08/15 08:06:15;;;;;;;6.10;1.70;;;;;;;;;;5072462;28;20023;-83
2023/08/15 08:08:40;;;;;;;6.03;1.63;;;;;;;;;;5075554;28;20035;-83
2023/08/15 08:11:05;;;;;;;5.10;1.38;;;;;;;;;;5075515;28;20401;-82
2023/08/15 08:13:31;;;;;;;6.68;1.52;;;;;;;;;;5075393;28;20103;-81
2023/08/15 08:15:56;;;;;;;3.50;1.42;;;;;;;;;;5075812;28;20028;-82
2023/08/15 08:18:22;;;;;;;5.47;1.63;;;;;;;;;;5065971;28;20463;-83
2023/08/15 08:20:47;;;;;;;5.10;1.52;;;;;;;;;;5076003;28;20016;-82
2023/08/15 08:23:13;;;;;;;9.52;1.63;;;;;;;;;;5072092;28;20095;-82
2023/08/15 08:25:39;;;;;;;5.30;1.70;;;;;;;;;;5075244;28;20031;-83
2023/08/15 08:28:05;;;;;;;5.70;1.60;;;;;;;;;;5075657;28;20035;-82
2023/08/15 08:30:30;;;;;;;3.50;1.50;;;;;;;;;;5075752;28;20043;-83
2023/08/15 08:32:55;;;;;;;4.72;1.65;;;;;;;;;;5066511;28;20020;-82
2023/08/15 08:35:20;;;;;;;15.25;1.70;;;;;;;;;;5069016;28;20174;-82
2023/08/15 08:37:47;;;;;;;6.57;1.55;;;;;;;;;;5076143;28;20020;-82
2023/08/15 08:40:12;;;;;;;4.75;1.40;;;;;;;;;;5094400;28;20455;-83
2023/08/15 08:42:40;;;;;;;4.80;1.48;;;;;;;;;;5094638;28;20130;-82
2023/08/15 08:45:09;;;;;;;7.38;1.33;;;;;;;;;;5088479;28;20016;-82
2023/08/15 08:47:36;;;;;;;4.15;1.30;;;;;;;;;;5078124;28;20025;-82
2023/08/15 08:50:02;;;;;;;8.65;1.45;;;;;;;;;;5077545;28;20031;-83
2023/08/15 08:52:28;;;;;;;5.65;1.60;;;;;;;;;;5063584;28;20340;-82
2023/08/15 08:54:54;;;;;;;12.05;1.83;;;;;;;;;;5080469;28;20017;-82
2023/08/15 08:57:20;;;;;;;5.38;1.45;;;;;;;;;;5070039;28;20104;-82
2023/08/15 08:59:45;;;;;;;5.57;1.65;;;;;;;;;;5076283;28;20111;-83
2023/08/15 09:02:14;;;;;;;7.70;1.30;;;;;;;;;;5066649;28;20017;-81
2023/08/15 09:04:40;;;;;;;7.68;1.67;;;;;;;;;;5059613;28;20024;-82
2023/08/15 09:07:06;;;;;;;7.50;1.33;;;;;;;;;;5075776;28;20012;-82
2023/08/15 09:09:34;;;;;;;3.90;1.23;;;;;;;;;;5075164;28;20024;-83
2023/08/15 09:11:59;;;;;;;5.47;1.45;;;;;;;;;;5075442;28;20040;-83
2023/08/15 09:14:25;;;;;;;4.30;1.58;;;;;;;;;;5057779;28;20495;-83
2023/08/15 09:16:52;;;;;;;7.97;2.03;;;;;;;;;;5074536;28;20023;-83
2023/08/15 09:19:18;;;;;;;7.15;1.60;;;;;;;;;;5074446;28;20090;-83
2023/08/15 09:21:43;;;;;;;3.92;1.40;;;;;;;;;;5074868;28;20109;-83
2023/08/15 09:24:09;;;;;;;5.30;1.30;;;;;;;;;;5067533;28;20112;-82
2023/08/15 09:26:35;;;;;;;5.38;1.45;;;;;;;;;;5068052;28;20039;-83
2023/08/15 09:29:02;;;;;;;2.83;1.08;;;;;;;;;;5074550;28;20359;-83
2023/08/15 09:31:27;;;;;;;4.22;1.38;;;;;;;;;;5060901;28;20040;-83
2023/08/15 09:33:53;;;;;;;4.72;1.40;;;;;;;;;;5069362;28;20047;-83
2023/08/15 09:36:18;;;;;;;3.03;1.17;;;;;;;;;;5061411;28;20069;-82
2023/08/15 09:38:44;;;;;;;3.38;1.10;;;;;;;;;;5074072;28;20079;-82
2023/08/15 09:41:09;;;;;;;4.68;1.42;;;;;;;;;;5074092;28;20023;-83
2023/08/15 09:43:35;;;;;;;3.78;1.30;;;;;;;;;;5062539;28;20027;-83
2023/08/15 09:46:00;;;;;;;8.15;1.67;;;;;;;;;;5073159;28;20016;-83
2023/08/15 09:48:28;;;;;;;4.45;1.27;;;;;;;;;;5058444;28;20130;-82
2023/08/15 09:50:54;;;;;;;5.95;1.40;;;;;;;;;;5074018;28;20111;-83
2023/08/15 09:53:20;;;;;;;2.85;1.15;;;;;;;;;;5063605;28;20020;-82
2023/08/15 09:55:45;;;;;;;6.95;1.48;;;;;;;;;;5074226;28;20540;-82
2023/08/15 09:58:11;;;;;;;5.70;1.15;;;;;;;;;;5064357;28;20019;-82
2023/08/15 10:00:37;;;;;;;3.25;1.40;;;;;;;;;;5061509;28;20028;-83
2023/08/15 10:03:08;;;;;;;4.78;1.23;;;;;;;;;;5065196;28;20682;-82
2023/08/15 10:05:36;;;;;;;5.28;1.10;;;;;;;;;;5073413;28;20024;-83
2023/08/15 10:08:01;;;;;;;2.85;1.23;;;;;;;;;;5066202;28;20122;-82
2023/08/15 10:10:27;;;;;;;7.15;1.20;;;;;;;;;;5055377;28;20020;-83
2023/08/15 10:12:54;;;;;;;5.65;1.30;;;;;;;;;;5059194;28;20027;-83
2023/08/15 10:15:21;;;;;;;4.30;1.33;;;;;;;;;;5050574;28;20112;-83
2023/08/15 10:17:47;;;;;;;4.28;1.50;;;;;;;;;;5053979;28;20039;-82
2023/08/15 10:20:16;;;;;;;2.83;0.80;;;;;;;;;;5069949;28;20383;-82
2023/08/15 10:22:42;;;;;;;6.85;1.38;;;;;;;;;;5053670;28;20024;-81
2023/08/15 10:25:36;;;;;;;6.30;1.55;;;;;;;;;;5055541;28;20536;-83
2023/08/15 10:28:07;;;;;;;6.65;1.70;;;;;;;;;;5064092;28;20478;-83
2023/08/15 10:30:41;;;;;;;3.35;1.30;;;;;;;;;;5065698;28;20025;-83
2023/08/15 10:33:16;;;;;;;2.65;1.23;;;;;;;;;;5071980;28;20024;-83
2023/08/15 10:35:49;;;;;;;7.00;1.50;;;;;;;;;;5057169;28;20532;-83
2023/08/15 10:38:15;;;;;;;4.68;1.30;;;;;;;;;;5064961;28;20027;-83
2023/08/15 10:40:41;;;;;;;4.72;1.23;;;;;;;;;;5070879;28;20016;-83
2023/08/15 10:43:11;;;;;;;5.65;1.10;;;;;;;;;;5073431;28;20020;-83
2023/08/15 10:45:43;;;;;;;5.93;1.58;;;;;;;;;;5069659;28;20467;-83
2023/08/15 10:48:12;;;;;;;3.55;0.90;;;;;;;;;;5058306;28;20426;-83
2023/08/15 10:50:42;;;;;;;5.15;1.30;;;;;;;;;;5068750;28;20597;-82
2023/08/15 10:53:07;;;;;;;2.47;0.88;;;;;;;;;;5078142;28;20559;-83
2023/08/15 10:55:34;;;;;;;5.50;1.45;;;;;;;;;;5073216;28;20016;-83
2023/08/15 10:58:02;;;;;;;3.50;1.17;;;;;;;;;;5064307;28;20025;-83
2023/08/15 11:00:30;;;;;;;5.30;1.40;;;;;;;;;;5068878;28;20381;-83
2023/08/15 11:02:55;;;;;;;2.97;0.82;;;;;;;;;;5057498;28;20316;-83
2023/08/15 11:05:20;;;;;;;5.22;1.55;;;;;;;;;;5047819;28;20082;-83
2023/08/15 11:07:46;;;;;;;3.88;1.30;;;;;;;;;;5049788;28;20389;-83
2023/08/15 11:10:11;;;;;;;4.28;1.00;;;;;;;;;;5053368;28;20058;-83
2023/08/15 11:12:37;;;;;;;4.97;1.20;;;;;;;;;;5049694;28;20856;-83
2023/08/15 11:15:08;;;;;;;5.13;1.15;;;;;;;;;;5067382;28;20017;-83
2023/08/15 11:17:37;;;;;;;3.85;1.00;;;;;;;;;;5055931;28;20612;-83
2023/08/15 11:20:04;;;;;;;4.43;1.38;;;;;;;;;;5058316;28;20124;-83
2023/08/15 11:22:29;;;;;;;2.85;0.93;;;;;;;;;;5056636;28;20416;-83
2023/08/15 11:24:54;;;;;;;3.88;1.27;;;;;;;;;;5058977;28;20017;-83
2023/08/15 11:27:20;;;;;;;6.45;0.75;;;;;;;;;;5057076;28;20044;-84
2023/08/15 11:29:55;;;;;;;3.83;1.00;;;;;;;;;;5090394;28;20101;-83
2023/08/15 11:32:22;;;;;;;6.93;1.30;;;;;;;;;;5058924;28;20020;-83
2023/08/15 11:34:50;;;;;;;3.03;1.20;;;;;;;;;;5064352;28;20408;-83
2023/08/15 11:37:16;;;;;;;3.45;1.10;;;;;;;;;;5059580;28;20020;-83
2023/08/15 11:39:41;;;;;;;4.97;1.10;;;;;;;;;;5075443;28;20038;-83
2023/08/15 11:42:07;;;;;;;2.90;0.85;;;;;;;;;;5054892;28;20021;-83
2023/08/15 11:44:32;;;;;;;2.13;0.95;;;;;;;;;;5049019;28;20024;-83
2023/08/15 11:46:57;;;;;;;4.50;1.20;;;;;;;;;;5051519;28;20073;-83
2023/08/15 11:49:23;;;;;;;8.82;1.42;;;;;;;;;;5051653;28;20064;-83
2023/08/15 11:51:51;;;;;;;2.83;1.05;;;;;;;;;;5061886;28;20039;-82
2023/08/15 11:54:16;;;;;;;3.28;1.10;;;;;;;;;;5050736;28;20025;-83
2023/08/15 11:56:51;;;;;;;9.85;1.23;;;;;;;;;;5057213;28;20021;-83
2023/08/15 11:59:18;;;;;;;4.85;1.10;;;;;;;;;;5054566;28;20036;-82
2023/08/15 12:01:46;;;;;;;2.22;1.00;;;;;;;;;;5052009;28;20432;-83
2023/08/15 12:04:13;;;;;;;7.65;1.30;;;;;;;;;;5054153;28;20036;-83
2023/08/15 12:06:39;;;;;;;8.10;1.20;;;;;;;;;;5057139;28;20400;-83
2023/08/15 12:09:05;;;;;;;7.07;1.55;;;;;;;;;;5059914;28;20032;-82
2023/08/15 12:11:33;;;;;;;5.82;1.30;;;;;;;;;;5056154;28;20391;-83
2023/08/15 12:14:02;;;;;;;4.72;0.95;;;;;;;;;;5058141;28;20031;-83
2023/08/15 12:16:27;;;;;;;6.65;1.30;;;;;;;;;;5064700;28;20024;-83
2023/08/15 12:18:53;;;;;;;5.90;1.30;;;;;;;;;;5059476;28;20032;-83
2023/08/15 12:21:18;;;;;;;3.20;1.25;;;;;;;;;;5066972;28;20123;-83
2023/08/15 12:23:44;;;;;;;4.90;1.27;;;;;;;;;;5065486;28;20430;-83
2023/08/15 12:26:09;;;;;;;4.53;1.42;;;;;;;;;;5055280;28;20016;-82
2023/08/15 12:28:35;;;;;;;4.05;1.60;;;;;;;;;;5086409;28;20022;-83
2023/08/15 12:31:00;;;;;;;4.28;1.52;;;;;;;;;;5055069;28;20028;-83
2023/08/15 12:33:26;;;;;;;6.15;1.35;;;;;;;;;;5057829;28;20025;-83
2023/08/15 12:35:51;;;;;;;4.47;1.27;;;;;;;;;;5058273;28;21033;-82
2023/08/15 12:38:17;;;;;;;3.97;1.25;;;;;;;;;;5067153;28;20158;-83
2023/08/15 12:40:43;;;;;;;7.97;1.27;;;;;;;;;;5058307;28;20471;-82
2023/08/15 12:43:08;;;;;;;4.15;1.27;;;;;;;;;;5064218;28;20030;-82
2023/08/15 12:45:33;;;;;;;3.13;1.27;;;;;;;;;;5059654;28;20017;-82
2023/08/15 12:47:59;;;;;;;3.72;1.00;;;;;;;;;;5067339;28;20048;-81
2023/08/15 12:50:24;;;;;;;2.70;1.10;;;;;;;;;;5055494;28;20028;-83
2023/08/15 12:52:49;;;;;;;2.85;1.30;;;;;;;;;;5067109;28;20035;-83
2023/08/15 12:55:15;;;;;;;6.93;1.50;;;;;;;;;;5067902;28;20475;-82
2023/08/15 12:57:41;;;;;;;3.63;1.10;;;;;;;;;;5075278;28;21116;-83
2023/08/15 13:00:11;;;;;;;2.92;1.10;;;;;;;;;;5075726;28;20488;-82
2023/08/15 13:02:36;;;;;;;5.35;1.35;;;;;;;;;;5072244;28;20028;-82
2023/08/15 13:05:04;;;;;;;5.03;1.30;;;;;;;;;;5075483;28;20024;-82
2023/08/15 13:07:30;;;;;;;3.42;1.40;;;;;;;;;;5070421;28;20138;-83
2023/08/15 13:09:55;;;;;;;3.72;1.00;;;;;;;;;;5076921;28;20079;-83
2023/08/15 13:12:23;;;;;;;4.60;1.67;;;;;;;;;;5063179;28;20141;-82
2023/08/15 13:14:49;;;;;;;9.07;1.55;;;;;;;;;;5094115;28;20063;-82
2023/08/15 13:17:14;;;;;;;3.75;1.20;;;;;;;;;;5075942;28;20501;-82
2023/08/15 13:19:40;;;;;;;5.85;1.17;;;;;;;;;;5095058;28;20038;-83
2023/08/15 13:22:05;;;;;;;5.85;1.35;;;;;;;;;;5094236;28;20019;-83
2023/08/15 13:24:33;;;;;;;4.00;1.15;;;;;;;;;;5064925;28;20038;-82
2023/08/15 13:27:02;;;;;;;4.10;1.05;;;;;;;;;;5075332;28;20073;-82
2023/08/15 13:29:27;;;;;;;4.95;1.20;;;;;;;;;;5075566;28;20016;-82
2023/08/15 13:31:53;;;;;;;3.40;1.23;;;;;;;;;;5075059;28;20020;-83
2023/08/15 13:34:20;;;;;;;6.65;1.10;;;;;;;;;;5063336;28;20016;-83
2023/08/15 13:36:45;;;;;;;4.80;1.20;;;;;;;;;;5074426;28;20027;-83
2023/08/15 13:39:10;;;;;;;4.00;0.82;;;;;;;;;;5074615;28;20020;-82
2023/08/15 13:41:36;;;;;;;2.00;0.82;;;;;;;;;;5074847;28;20379;-83
2023/08/15 13:44:04;;;;;;;2.47;1.40;;;;;;;;;;5061121;28;20016;-83
2023/08/15 13:46:29;;;;;;;3.38;1.30;;;;;;;;;;5092669;28;20390;-83
2023/08/15 13:48:55;;;;;;;2.63;0.95;;;;;;;;;;5092522;28;20016;-83
2023/08/15 13:51:20;;;;;;;4.53;1.13;;;;;;;;;;5074302;28;20435;-83
2023/08/15 13:53:46;;;;;;;8.07;0.98;;;;;;;;;;5057104;28;20029;-83
2023/08/15 13:56:12;;;;;;;7.30;1.15;;;;;;;;;;5059368;28;20024;-83
2023/08/15 13:58:37;;;;;;;6.03;1.40;;;;;;;;;;5074362;28;20030;-82
2023/08/15 14:01:03;;;;;;;6.20;1.13;;;;;;;;;;5074166;28;20012;-83
2023/08/15 14:03:29;;;;;;;3.50;1.13;;;;;;;;;;5072526;28;20033;-83
2023/08/15 14:05:55;;;;;;;3.50;1.00;;;;;;;;;;5074164;28;20016;-83
2023/08/15 14:08:20;;;;;;;3.42;1.05;;;;;;;;;;5074637;28;20020;-83
2023/08/15 14:10:48;;;;;;;3.03;1.20;;;;;;;;;;5092659;28;20040;-83
2023/08/15 14:13:14;;;;;;;3.10;1.23;;;;;;;;;;5089199;28;20020;-83
2023/08/15 14:15:39;;;;;;;2.65;0.90;;;;;;;;;;5062929;28;20039;-83
2023/08/15 14:18:05;;;;;;;2.88;1.20;;;;;;;;;;5071605;28;20069;-83
2023/08/15 14:20:33;;;;;;;4.15;1.02;;;;;;;;;;5074345;28;20130;-82
2023/08/15 14:22:58;;;;;;;1.40;0.80;;;;;;;;;;5068505;28;20135;-83
2023/08/15 14:25:23;;;;;;;9.23;1.20;;;;;;;;;;5071931;28;20044;-83
2023/08/15 14:27:49;;;;;;;2.78;0.90;;;;;;;;;;5074374;28;20391;-83
2023/08/15 14:30:14;;;;;;;3.97;1.02;;;;;;;;;;5074303;28;20020;-83
2023/08/15 14:32:40;;;;;;;6.38;1.40;;;;;;;;;;5089432;28;20761;-82
2023/08/15 14:35:05;;;;;;;6.30;1.45;;;;;;;;;;5067629;28;20024;-83
2023/08/15 14:37:31;;;;;;;4.85;1.20;;;;;;;;;;5074359;28;20039;-83